KBMT/BMT METAR and TAF weather

Enter ICAO airport designator
Station Type Date Time Source
KBMT METAR 2021/07/26 16:30 UTC NOAA

KBMT 261630Z AUTO 36005KT 10SM CLR 33/25 A2999 RMK AO2 T03290251


Station Type Date Time Source
KBMT Decoded METAR 2021/07/26 16:30 UTC NOAA

Station name not available
Jul 26, 2021 - 12:30 PM EDT / 2021.07.26 1630 UTC
Wind: from the N (360 degrees) at 6 MPH (5 KT):0
Visibility: 10 mile(s):0
Sky conditions: clear
Temperature: 91.2 F (32.9 C)
Heat index: 104.5 F (40.3 C):1
Dew Point: 77.2 F (25.1 C)
Relative Humidity: 63%
Pressure (altimeter): 29.99 in. Hg (1015 hPa)
ob: KBMT 261630Z AUTO 36005KT 10SM CLR 33/25 A2999 RMK AO2 T03290251
cycle: 16

Station Type Date Time Source
KBMT TAF UTC NOAA

Error!

Example: see airport list